Time;durP1;ratioP1;P1;durP2;ratioP2;P2;SDS_P1;SDS_P2;PMS_P1;PMS_P2;Temp;Humidity;BMP_temperature;BMP_pressure;BME280_temperature;BME280_humidity;BME280_pressure;Samples;Min_cycle;Max_cycle;Signal;HPM_P1;HPM_P2
2022/09/09 00:01:20;;;;;;;4.97;1.70;;;15.00;99.90;;;;;;5027641;28;20029;-66
2022/09/09 00:04:23;;;;;;;4.95;1.70;;;15.00;99.90;;;;;;5031646;28;20036;-66
2022/09/09 00:07:10;;;;;;;6.75;1.90;;;14.90;99.90;;;;;;5030649;28;20380;-66
2022/09/09 00:09:48;;;;;;;4.95;1.73;;;14.80;99.90;;;;;;5025895;28;20050;-66
2022/09/09 00:12:27;;;;;;;5.65;1.90;;;14.80;99.90;;;;;;5030502;28;20026;-66
2022/09/09 00:15:11;;;;;;;6.97;1.85;;;14.70;99.90;;;;;;5028587;28;20018;-66
2022/09/09 00:18:05;;;;;;;6.63;1.70;;;14.70;99.90;;;;;;5039562;28;20029;-67
2022/09/09 00:21:02;;;;;;;7.28;2.25;;;14.50;99.90;;;;;;5023916;28;20061;-66
2022/09/09 00:23:32;;;;;;;5.60;1.77;;;14.40;99.90;;;;;;5040250;28;20433;-66
2022/09/09 00:26:23;;;;;;;6.17;2.10;;;14.30;99.90;;;;;;5034520;28;20033;-66
2022/09/09 00:29:02;;;;;;;7.00;2.15;;;14.20;99.90;;;;;;5032158;28;20288;-67
2022/09/09 00:31:30;;;;;;;5.40;2.00;;;14.10;99.90;;;;;;5034808;28;20392;-66
2022/09/09 00:34:04;;;;;;;6.53;1.90;;;14.20;99.90;;;;;;5035414;28;20022;-66
2022/09/09 00:36:33;;;;;;;6.68;2.00;;;14.20;99.90;;;;;;5030593;28;20025;-66
2022/09/09 00:39:01;;;;;;;6.20;2.10;;;14.20;99.90;;;;;;5038329;28;20053;-67
2022/09/09 00:41:59;;;;;;;7.35;2.20;;;14.20;99.90;;;;;;5041882;28;20025;-67
2022/09/09 00:44:34;;;;;;;5.50;1.90;;;14.20;99.90;;;;;;5033451;28;20037;-67
2022/09/09 00:47:21;;;;;;;6.25;2.42;;;14.20;99.90;;;;;;5051285;28;20036;-67
2022/09/09 00:49:50;;;;;;;6.72;2.30;;;14.30;99.90;;;;;;5038540;28;20420;-67
2022/09/09 00:52:30;;;;;;;5.10;2.28;;;14.30;99.90;;;;;;5047209;28;20021;-67
2022/09/09 00:55:21;;;;;;;5.75;2.28;;;14.30;99.90;;;;;;5055318;28;20056;-67
2022/09/09 00:57:48;;;;;;;;;;;14.30;99.90;;;;;;5033811;28;20036;-67
2022/09/09 01:00:25;;;;;;;8.75;3.22;;;14.30;99.90;;;;;;5040274;28;19908;-67
2022/09/09 01:02:57;;;;;;;9.57;2.88;;;14.30;99.90;;;;;;5035003;28;20025;-67
2022/09/09 01:05:33;;;;;;;6.85;2.60;;;14.30;99.90;;;;;;5033946;28;20082;-67
2022/09/09 01:08:02;;;;;;;12.55;2.80;;;14.40;99.90;;;;;;5037507;28;20014;-67
2022/09/09 01:10:43;;;;;;;11.55;2.92;;;14.40;99.90;;;;;;5035043;28;20080;-67
2022/09/09 01:13:18;;;;;;;9.77;3.17;;;14.50;99.90;;;;;;5033395;28;20021;-67
2022/09/09 01:15:46;;;;;;;13.68;3.47;;;14.50;99.90;;;;;;5040530;28;20477;-67
2022/09/09 01:18:16;;;;;;;10.23;3.28;;;14.50;99.90;;;;;;5038865;28;20017;-67
2022/09/09 01:21:17;;;;;;;9.13;3.33;;;14.50;99.90;;;;;;5034559;28;20037;-67
2022/09/09 01:23:51;;;;;;;12.15;3.42;;;14.40;99.90;;;;;;5040641;28;20443;-67
2022/09/09 01:26:46;;;;;;;11.10;3.30;;;14.30;99.90;;;;;;5038796;28;20060;-69
2022/09/09 01:29:14;;;;;;;9.65;3.55;;;14.20;99.90;;;;;;5033914;28;20040;-68
2022/09/09 01:31:51;;;;;;;12.23;3.60;;;14.30;99.90;;;;;;5039355;28;20025;-68
2022/09/09 01:34:17;;;;;;;8.45;3.10;;;14.40;99.90;;;;;;5034755;28;20101;-68
2022/09/09 01:37:05;;;;;;;10.55;2.88;;;14.40;99.90;;;;;;5034952;28;20056;-68
2022/09/09 01:39:33;;;;;;;9.13;2.80;;;14.50;99.90;;;;;;5030140;28;20018;-68
2022/09/09 01:41:58;;;;;;;8.77;2.65;;;14.50;99.90;;;;;;5027782;28;20104;-68
2022/09/09 01:44:26;;;;;;;8.23;2.70;;;14.50;99.90;;;;;;5041651;28;20541;-68
2022/09/09 01:46:52;;;;;;;9.98;3.13;;;14.60;99.90;;;;;;5030494;28;20028;-67
2022/09/09 01:49:18;;;;;;;9.05;2.75;;;14.60;99.90;;;;;;5044525;28;20021;-68
2022/09/09 01:51:49;;;;;;;9.30;2.78;;;14.70;99.90;;;;;;5056544;28;20124;-68
2022/09/09 01:54:15;;;;;;;13.45;3.00;;;14.70;99.90;;;;;;5023917;28;20033;-68
2022/09/09 01:56:57;;;;;;;11.57;2.60;;;14.70;99.90;;;;;;5034646;28;20098;-68
2022/09/09 01:59:47;;;;;;;9.32;2.80;;;14.70;99.90;;;;;;5025223;28;20047;-68
2022/09/09 02:02:41;;;;;;;7.28;2.30;;;14.80;99.90;;;;;;5027248;28;20022;-68
2022/09/09 02:05:35;;;;;;;6.57;2.10;;;14.90;99.90;;;;;;5036893;28;20060;-68
2022/09/09 02:08:06;;;;;;;6.75;2.10;;;14.90;99.90;;;;;;5037091;28;20025;-68
2022/09/09 02:10:48;;;;;;;6.28;2.28;;;14.90;99.90;;;;;;5028098;28;20033;-68
2022/09/09 02:13:17;;;;;;;7.80;2.45;;;15.00;99.90;;;;;;5038934;28;20595;-68
2022/09/09 02:15:58;;;;;;;9.05;2.63;;;15.00;99.90;;;;;;5036605;28;20018;-68
2022/09/09 02:18:44;;;;;;;12.02;2.35;;;15.00;99.90;;;;;;5035183;28;20044;-68
2022/09/09 02:21:12;;;;;;;9.20;2.92;;;15.10;99.90;;;;;;5046231;28;20135;-68
2022/09/09 02:23:41;;;;;;;10.10;2.53;;;15.00;99.90;;;;;;5037630;28;20060;-68
2022/09/09 02:26:08;;;;;;;8.07;2.42;;;15.00;99.90;;;;;;5041641;28;20025;-68
2022/09/09 02:28:36;;;;;;;10.55;2.83;;;15.10;99.90;;;;;;5042466;28;20421;-68
2022/09/09 02:31:02;;;;;;;6.90;2.17;;;15.10;99.90;;;;;;5033330;28;20034;-68
2022/09/09 02:33:34;;;;;;;6.88;2.58;;;15.00;99.90;;;;;;5029628;28;20021;-68
2022/09/09 02:36:03;;;;;;;8.73;2.50;;;15.00;99.90;;;;;;5035236;28;20237;-68
2022/09/09 02:38:34;;;;;;;5.70;1.88;;;14.90;99.90;;;;;;5033624;28;20060;-68
2022/09/09 02:41:01;;;;;;;10.15;2.53;;;14.90;99.90;;;;;;5031325;28;20492;-68
2022/09/09 02:43:32;;;;;;;11.68;2.30;;;14.90;99.90;;;;;;5035134;28;20315;-68
2022/09/09 02:46:00;;;;;;;;;;;14.90;99.90;;;;;;5033733;28;20017;-68
2022/09/09 02:48:55;;;;;;;9.00;1.85;;;14.90;99.90;;;;;;5032426;28;19978;-68
2022/09/09 02:52:01;;;;;;;8.07;2.03;;;14.80;99.90;;;;;;5034574;28;20051;-68
2022/09/09 02:54:33;;;;;;;10.73;2.30;;;14.90;99.90;;;;;;5030124;28;20025;-68
2022/09/09 02:57:05;;;;;;;7.32;2.35;;;14.90;99.90;;;;;;5036469;28;20036;-68
2022/09/09 02:59:31;;;;;;;7.57;2.00;;;14.90;99.90;;;;;;5034665;28;20029;-68
2022/09/09 03:01:56;;;;;;;9.00;2.47;;;14.90;99.90;;;;;;5033307;28;20026;-68
2022/09/09 03:04:24;;;;;;;9.43;2.38;;;14.90;99.90;;;;;;5032896;28;20024;-68
2022/09/09 03:06:49;;;;;;;6.40;2.20;;;14.90;99.90;;;;;;5034048;28;20018;-68
2022/09/09 03:09:15;;;;;;;7.22;2.15;;;14.80;99.90;;;;;;5035394;28;20032;-69
2022/09/09 03:11:41;;;;;;;8.63;2.00;;;14.80;99.90;;;;;;5027935;28;20022;-69
2022/09/09 03:14:07;;;;;;;10.48;2.67;;;14.70;99.90;;;;;;5034257;28;20441;-68
2022/09/09 03:16:34;;;;;;;6.55;2.30;;;14.70;99.90;;;;;;5035676;28;20048;-68
2022/09/09 03:19:00;;;;;;;9.30;2.30;;;14.70;99.90;;;;;;5036529;28;20041;-68
2022/09/09 03:21:26;;;;;;;5.90;1.90;;;14.70;99.90;;;;;;5033066;28;20073;-68
2022/09/09 03:23:51;;;;;;;5.50;1.80;;;14.70;99.90;;;;;;5042169;28;20045;-68
2022/09/09 03:26:17;;;;;;;7.55;2.30;;;14.70;99.90;;;;;;5051687;28;20481;-68
2022/09/09 03:28:44;;;;;;;6.65;2.05;;;14.70;99.90;;;;;;5028692;28;20058;-68
2022/09/09 03:31:10;;;;;;;7.15;2.00;;;14.70;99.90;;;;;;5035218;28;20020;-68
2022/09/09 03:33:41;;;;;;;8.90;2.10;;;14.80;99.90;;;;;;5036224;28;20389;-68
2022/09/09 03:36:08;;;;;;;6.38;2.17;;;14.80;99.90;;;;;;5029893;28;20030;-68
2022/09/09 03:38:34;;;;;;;6.03;1.83;;;14.70;99.90;;;;;;5051810;28;20026;-68
2022/09/09 03:41:01;;;;;;;9.75;2.42;;;14.80;99.90;;;;;;5029654;28;20037;-69
2022/09/09 03:43:28;;;;;;;7.68;2.00;;;14.80;99.90;;;;;;5041292;28;20027;-68
2022/09/09 03:45:57;;;;;;;7.72;2.08;;;14.70;99.90;;;;;;5033808;28;20463;-68
2022/09/09 03:48:25;;;;;;;8.02;2.13;;;14.70;99.90;;;;;;5033343;28;20545;-68
2022/09/09 03:50:52;;;;;;;7.15;2.13;;;14.60;99.90;;;;;;5034122;28;20018;-68
2022/09/09 03:53:20;;;;;;;8.50;2.28;;;14.50;99.90;;;;;;5032699;28;20481;-69
2022/09/09 03:55:47;;;;;;;10.30;2.00;;;14.50;99.90;;;;;;5032289;28;20022;-69
2022/09/09 03:58:14;;;;;;;7.20;2.13;;;14.50;99.90;;;;;;5024458;28;20033;-69
2022/09/09 04:00:42;;;;;;;9.27;2.38;;;14.50;99.90;;;;;;5032394;28;20107;-68
2022/09/09 04:03:09;;;;;;;7.68;2.33;;;14.50;99.90;;;;;;5036035;28;20057;-69
2022/09/09 04:05:39;;;;;;;7.90;2.20;;;14.50;99.90;;;;;;5039741;28;20348;-68
2022/09/09 04:08:08;;;;;;;9.52;2.92;;;14.50;99.90;;;;;;5028904;28;20026;-68
2022/09/09 04:10:36;;;;;;;8.73;2.50;;;14.50;99.90;;;;;;5029223;28;20037;-69
2022/09/09 04:13:02;;;;;;;7.82;2.60;;;14.50;99.90;;;;;;5037648;28;20308;-69
2022/09/09 04:15:28;;;;;;;7.32;2.13;;;14.40;99.90;;;;;;5036839;28;20026;-69
2022/09/09 04:17:54;;;;;;;7.78;2.30;;;14.50;99.90;;;;;;5036764;28;20021;-69
2022/09/09 04:20:20;;;;;;;7.65;2.55;;;14.40;99.90;;;;;;5036375;28;20095;-69
2022/09/09 04:22:45;;;;;;;9.93;2.30;;;14.40;99.90;;;;;;5038154;28;20021;-69
2022/09/09 04:25:11;;;;;;;10.20;2.28;;;14.50;99.90;;;;;;5032304;28;20018;-69
2022/09/09 04:27:37;;;;;;;9.75;2.40;;;14.50;99.90;;;;;;5040728;28;20022;-69
2022/09/09 04:30:02;;;;;;;9.48;2.95;;;14.50;99.90;;;;;;5034005;28;20103;-69
2022/09/09 04:32:28;;;;;;;9.40;2.35;;;14.60;99.90;;;;;;5053833;28;20021;-69
2022/09/09 04:34:54;;;;;;;9.60;2.30;;;14.60;99.90;;;;;;5038925;28;20026;-69
2022/09/09 04:37:19;;;;;;;7.13;2.00;;;14.60;99.90;;;;;;5034709;28;20022;-68
2022/09/09 04:39:45;;;;;;;10.00;2.47;;;14.60;99.90;;;;;;5035051;28;20076;-68
2022/09/09 04:42:11;;;;;;;11.88;2.60;;;14.60;99.90;;;;;;5034252;28;20045;-68
2022/09/09 04:44:37;;;;;;;10.10;2.63;;;14.70;99.90;;;;;;5034065;28;20328;-68
2022/09/09 04:47:02;;;;;;;9.38;2.38;;;14.70;99.90;;;;;;5046622;28;20031;-68
2022/09/09 04:49:28;;;;;;;8.98;2.60;;;14.60;99.90;;;;;;5030765;28;20056;-68
2022/09/09 04:51:53;;;;;;;9.57;2.50;;;14.60;99.90;;;;;;5034897;28;20523;-68
2022/09/09 04:54:19;;;;;;;7.28;2.17;;;14.70;99.90;;;;;;5030633;28;20465;-68
2022/09/09 04:56:45;;;;;;;6.93;2.30;;;14.80;99.90;;;;;;5035367;28;20061;-68
2022/09/09 04:59:10;;;;;;;8.43;2.38;;;14.80;99.90;;;;;;5034972;28;20500;-68
2022/09/09 05:01:36;;;;;;;7.75;2.42;;;14.80;99.90;;;;;;5037125;28;20045;-68
2022/09/09 05:04:02;;;;;;;8.20;2.38;;;14.90;99.90;;;;;;5032746;28;20018;-68
2022/09/09 05:06:31;;;;;;;8.98;2.28;;;14.90;99.90;;;;;;5031198;28;20371;-68
2022/09/09 05:08:57;;;;;;;9.73;2.70;;;15.00;99.90;;;;;;5034027;28;20049;-69
2022/09/09 05:11:26;;;;;;;6.97;2.25;;;14.90;99.90;;;;;;5046984;28;20017;-68
2022/09/09 05:13:53;;;;;;;7.78;2.15;;;14.90;99.90;;;;;;5031795;28;20080;-68
2022/09/09 05:16:20;;;;;;;10.18;2.50;;;15.00;99.90;;;;;;5033040;28;20029;-68
2022/09/09 05:18:47;;;;;;;7.57;2.40;;;15.10;99.90;;;;;;5032045;28;20033;-68
2022/09/09 05:21:14;;;;;;;10.98;2.67;;;15.10;99.90;;;;;;5021832;28;20041;-68
2022/09/09 05:23:40;;;;;;;10.00;2.13;;;15.20;99.90;;;;;;5042193;28;20068;-68
2022/09/09 05:26:09;;;;;;;8.68;2.22;;;15.20;99.90;;;;;;5038659;28;20029;-68
2022/09/09 05:28:35;;;;;;;6.32;2.15;;;15.20;99.90;;;;;;5032465;28;20036;-68
2022/09/09 05:31:04;;;;;;;11.48;2.67;;;15.20;99.90;;;;;;5033773;28;20753;-69
2022/09/09 05:33:31;;;;;;;7.82;2.20;;;15.20;99.90;;;;;;5032011;28;20491;-68
2022/09/09 05:36:06;;;;;;;7.93;2.40;;;15.30;99.90;;;;;;5029486;28;20271;-68
2022/09/09 05:38:32;;;;;;;7.57;2.40;;;15.30;99.90;;;;;;5033710;28;20018;-69
2022/09/09 05:40:58;;;;;;;6.72;2.20;;;15.30;99.90;;;;;;5032054;28;20024;-68
2022/09/09 05:43:25;;;;;;;8.32;2.80;;;15.40;99.90;;;;;;5031583;28;20501;-68
2022/09/09 05:46:11;;;;;;;11.75;2.45;;;15.40;99.90;;;;;;5029518;28;20045;-69
2022/09/09 05:48:39;;;;;;;12.27;2.38;;;15.50;99.90;;;;;;5027833;28;20021;-69
2022/09/09 05:51:06;;;;;;;8.63;2.28;;;15.50;99.90;;;;;;5025378;28;20032;-69
2022/09/09 05:53:33;;;;;;;11.15;2.42;;;15.50;99.90;;;;;;5031814;28;20041;-69
2022/09/09 05:56:04;;;;;;;7.28;2.20;;;15.50;99.90;;;;;;5033089;28;20026;-68
2022/09/09 05:58:34;;;;;;;9.95;2.33;;;15.50;99.90;;;;;;5035974;28;20079;-68
2022/09/09 06:01:06;;;;;;;7.55;2.20;;;15.60;99.90;;;;;;5032974;28;20366;-68
2022/09/09 06:03:33;;;;;;;8.02;2.08;;;15.50;99.90;;;;;;5032915;28;20032;-69
2022/09/09 06:06:01;;;;;;;7.93;2.10;;;15.60;99.90;;;;;;5036674;28;20025;-69
2022/09/09 06:08:28;;;;;;;7.60;2.15;;;15.70;99.90;;;;;;5032121;28;20036;-69
2022/09/09 06:10:53;;;;;;;7.97;2.08;;;15.70;99.90;;;;;;5032995;28;20481;-69
2022/09/09 06:13:19;;;;;;;5.80;1.98;;;15.80;99.90;;;;;;5027817;28;20083;-68
2022/09/09 06:15:52;;;;;;;9.52;2.10;;;15.80;99.90;;;;;;5032598;28;20021;-69
2022/09/09 06:18:18;;;;;;;7.65;1.92;;;15.90;99.90;;;;;;5034140;28;20021;-68
2022/09/09 06:21:00;;;;;;;6.55;1.90;;;15.90;99.90;;;;;;5033061;28;20381;-68
2022/09/09 06:23:27;;;;;;;7.10;1.90;;;16.00;99.90;;;;;;5027401;28;20041;-68
2022/09/09 06:26:01;;;;;;;5.65;2.03;;;16.10;99.90;;;;;;5031863;28;20082;-69
2022/09/09 06:28:27;;;;;;;8.30;2.20;;;16.00;99.90;;;;;;5030764;28;20045;-68
2022/09/09 06:31:03;;;;;;;8.57;2.00;;;16.10;99.90;;;;;;5030156;28;20045;-69
2022/09/09 06:33:40;;;;;;;12.32;2.00;;;16.20;99.90;;;;;;5044505;28;20080;-68
2022/09/09 06:36:10;;;;;;;7.68;2.22;;;16.20;99.90;;;;;;5023901;28;20045;-66
2022/09/09 06:38:35;;;;;;;9.60;2.38;;;16.20;99.90;;;;;;5026007;28;20111;-66
2022/09/09 06:41:01;;;;;;;11.75;2.00;;;16.20;99.90;;;;;;5027195;28;20017;-64
2022/09/09 06:43:28;;;;;;;6.35;1.92;;;16.20;99.90;;;;;;5019364;28;20033;-64
2022/09/09 06:46:02;;;;;;;8.45;2.20;;;16.20;99.90;;;;;;5027065;28;20036;-65
2022/09/09 06:48:28;;;;;;;8.55;2.10;;;16.20;99.90;;;;;;5029167;28;20033;-65
2022/09/09 06:51:23;;;;;;;8.45;2.00;;;16.30;99.90;;;;;;5025042;28;20129;-65
2022/09/09 06:53:55;;;;;;;10.35;1.90;;;16.30;99.90;;;;;;5027894;28;20038;-63
2022/09/09 06:56:28;;;;;;;10.07;2.10;;;16.40;99.90;;;;;;5025942;28;20053;-63
2022/09/09 06:58:56;;;;;;;8.18;1.92;;;16.40;99.90;;;;;;5031827;28;20029;-64
2022/09/09 07:01:27;;;;;;;7.22;1.90;;;16.50;99.90;;;;;;5026769;28;20144;-66
2022/09/09 07:03:54;;;;;;;7.47;1.98;;;16.50;99.90;;;;;;5020878;28;20037;-66
2022/09/09 07:06:31;;;;;;;6.88;2.17;;;16.50;99.90;;;;;;5032752;28;20036;-66
2022/09/09 07:09:03;;;;;;;5.82;1.92;;;16.50;99.90;;;;;;5020585;28;20155;-67
2022/09/09 07:11:31;;;;;;;6.13;1.80;;;16.50;99.90;;;;;;5032844;28;20493;-64
2022/09/09 07:13:59;;;;;;;6.00;1.77;;;16.50;99.90;;;;;;5028948;28;22466;-65
2022/09/09 07:16:25;;;;;;;7.80;2.10;;;16.40;99.90;;;;;;5028355;28;20030;-65
2022/09/09 07:18:52;;;;;;;10.57;2.22;;;16.40;99.90;;;;;;5032269;28;20021;-63
2022/09/09 07:21:19;;;;;;;6.35;1.70;;;16.40;99.90;;;;;;5036123;28;20044;-63
2022/09/09 07:23:45;;;;;;;9.10;1.73;;;16.40;99.90;;;;;;5027565;28;20033;-63
2022/09/09 07:26:21;;;;;;;4.80;1.80;;;16.50;99.90;;;;;;5025327;28;20029;-63
2022/09/09 07:28:47;;;;;;;7.85;1.60;;;16.50;99.90;;;;;;5013003;28;20051;-63
2022/09/09 07:31:36;;;;;;;6.70;2.10;;;16.70;99.90;;;;;;5027032;28;20032;-63
2022/09/09 07:34:02;;;;;;;6.13;1.60;;;16.80;99.90;;;;;;5023719;28;20041;-63
2022/09/09 07:36:33;;;;;;;8.40;2.08;;;16.90;99.90;;;;;;5025446;28;20032;-63
2022/09/09 07:39:02;;;;;;;6.53;1.58;;;17.00;99.90;;;;;;5029847;28;20026;-63
2022/09/09 07:41:33;;;;;;;4.45;1.40;;;17.00;99.90;;;;;;5021537;28;20525;-63
2022/09/09 07:44:03;;;;;;;5.95;1.70;;;17.00;99.90;;;;;;5044220;28;20112;-63
2022/09/09 07:46:29;;;;;;;8.00;2.20;;;17.00;99.90;;;;;;5027619;28;20029;-64
2022/09/09 07:48:56;;;;;;;6.63;1.73;;;17.00;99.90;;;;;;5028907;28;20295;-63
2022/09/09 07:51:27;;;;;;;7.53;1.75;;;17.00;99.90;;;;;;5022548;28;20036;-63
2022/09/09 07:54:06;;;;;;;6.95;1.50;;;17.10;99.90;;;;;;5025029;28;20385;-66
2022/09/09 07:56:32;;;;;;;6.97;1.60;;;17.20;99.90;;;;;;5021667;28;20029;-66
2022/09/09 07:59:01;;;;;;;5.40;1.85;;;17.30;99.90;;;;;;5023488;28;20606;-63
2022/09/09 08:01:41;;;;;;;7.18;1.63;;;17.50;99.90;;;;;;5025704;28;20037;-63
2022/09/09 08:04:16;;;;;;;8.95;1.90;;;17.50;99.90;;;;;;5027062;28;20048;-63
2022/09/09 08:06:46;;;;;;;6.30;1.60;;;17.60;99.90;;;;;;5023778;28;20038;-65
2022/09/09 08:09:11;;;;;;;8.57;2.10;;;17.60;99.90;;;;;;5024098;28;20047;-66
2022/09/09 08:11:38;;;;;;;7.70;1.88;;;17.60;99.90;;;;;;5027315;28;20029;-66
2022/09/09 08:14:05;;;;;;;11.13;1.77;;;17.50;99.90;;;;;;5025628;28;20036;-67
2022/09/09 08:16:33;;;;;;;7.25;2.00;;;17.60;99.90;;;;;;5027997;28;20029;-63
2022/09/09 08:19:00;;;;;;;10.57;1.90;;;17.80;99.90;;;;;;5023776;28;20576;-64
2022/09/09 08:21:31;;;;;;;6.97;1.83;;;17.80;99.90;;;;;;5023441;28;20049;-63
2022/09/09 08:23:59;;;;;;;11.80;1.80;;;17.80;99.90;;;;;;5023889;28;20034;-63
2022/09/09 08:26:30;;;;;;;7.65;1.83;;;17.70;99.90;;;;;;5024929;28;20029;-63
2022/09/09 08:28:58;;;;;;;7.05;1.30;;;17.90;99.90;;;;;;5020692;28;20029;-63
2022/09/09 08:31:26;;;;;;;7.30;1.50;;;18.30;99.90;;;;;;5022838;28;20535;-63
2022/09/09 08:33:52;;;;;;;5.30;1.48;;;18.20;99.90;;;;;;5023406;28;20373;-63
2022/09/09 08:36:21;;;;;;;9.80;1.70;;;18.10;99.90;;;;;;5019619;28;20117;-63
2022/09/09 08:38:54;;;;;;;6.32;1.58;;;18.80;99.90;;;;;;5040201;28;20641;-63
2022/09/09 08:42:00;;;;;;;5.28;1.60;;;19.60;99.90;;;;;;5017980;28;20121;-63
2022/09/09 08:44:35;;;;;;;5.88;1.80;;;19.30;99.90;;;;;;5023589;28;20033;-64
2022/09/09 08:47:31;;;;;;;8.82;1.65;;;19.50;99.90;;;;;;5022998;28;20084;-63
2022/09/09 08:50:04;;;;;;;6.53;1.40;;;19.60;99.90;;;;;;5025144;28;20029;-64
2022/09/09 08:53:00;;;;;;;4.90;1.33;;;19.40;99.90;;;;;;5028451;28;20102;-63
2022/09/09 08:55:51;;;;;;;3.28;1.13;;;19.10;99.90;;;;;;5024722;28;20030;-63
2022/09/09 08:58:21;;;;;;;9.82;1.80;;;19.00;99.90;;;;;;5028767;28;20044;-63
2022/09/09 09:01:08;;;;;;;5.50;1.40;;;19.00;99.90;;;;;;5018201;28;20038;-63
2022/09/09 09:03:43;;;;;;;5.88;1.60;;;19.00;99.90;;;;;;5041334;28;20037;-64
2022/09/09 09:06:30;;;;;;;6.45;1.85;;;19.00;99.90;;;;;;5027250;28;20033;-64
2022/09/09 09:09:18;;;;;;;5.60;1.40;;;19.30;99.90;;;;;;5028791;28;20100;-63
2022/09/09 09:11:54;;;;;;;7.13;1.80;;;20.00;99.90;;;;;;5022351;28;20503;-63
2022/09/09 09:14:27;;;;;;;8.23;1.58;;;20.60;99.90;;;;;;5028711;28;20025;-64
2022/09/09 09:16:58;;;;;;;6.95;1.23;;;20.70;99.90;;;;;;5028345;28;20013;-63
2022/09/09 09:19:26;;;;;;;10.57;2.03;;;20.70;99.90;;;;;;5026362;28;20041;-63
2022/09/09 09:21:55;;;;;;;4.32;1.40;;;20.70;99.90;;;;;;5028398;28;20069;-64
2022/09/09 09:24:27;;;;;;;6.10;1.25;;;21.00;99.90;;;;;;5042247;28;20429;-63
2022/09/09 09:26:53;;;;;;;4.75;1.25;;;21.10;99.90;;;;;;5029683;28;20113;-64
2022/09/09 09:29:21;;;;;;;5.13;1.30;;;20.90;99.90;;;;;;5021941;28;20231;-64
2022/09/09 09:31:58;;;;;;;8.70;1.40;;;21.00;99.90;;;;;;5025540;28;20330;-64
2022/09/09 09:34:24;;;;;;;2.67;1.17;;;20.70;99.90;;;;;;5030338;28;20633;-63
2022/09/09 09:36:57;;;;;;;8.48;2.03;;;20.00;99.90;;;;;;5024647;28;20021;-63
2022/09/09 09:39:26;;;;;;;9.38;1.60;;;20.70;99.90;;;;;;5026275;28;20061;-64
2022/09/09 09:41:52;;;;;;;8.40;1.95;;;21.10;99.90;;;;;;5023888;28;20031;-64
2022/09/09 09:44:24;;;;;;;7.57;1.38;;;22.10;99.90;;;;;;5026951;28;20393;-63
2022/09/09 09:46:50;;;;;;;4.60;1.27;;;21.30;99.90;;;;;;5028766;28;20052;-63
2022/09/09 09:49:17;;;;;;;4.22;1.17;;;20.90;99.90;;;;;;5026240;28;20347;-64
2022/09/09 09:51:43;;;;;;;3.53;1.20;;;21.50;99.90;;;;;;5028456;28;20552;-63
2022/09/09 09:54:28;;;;;;;7.10;1.42;;;21.50;99.90;;;;;;5026989;28;20029;-63
2022/09/09 09:56:54;;;;;;;7.82;1.60;;;21.30;99.90;;;;;;5025368;28;20426;-63
2022/09/09 09:59:20;;;;;;;5.75;1.35;;;20.90;99.90;;;;;;5027205;28;20031;-64
2022/09/09 10:01:45;;;;;;;5.47;1.20;;;21.30;99.90;;;;;;5027258;28;20401;-64
2022/09/09 10:04:29;;;;;;;10.10;2.00;;;21.20;99.90;;;;;;5023773;28;20033;-64
2022/09/09 10:06:55;;;;;;;4.90;1.30;;;21.90;99.90;;;;;;5026731;28;20080;-64
2022/09/09 10:09:32;;;;;;;9.05;1.40;;;22.90;99.90;;;;;;5027007;28;20036;-64
2022/09/09 10:12:11;;;;;;;4.60;1.17;;;23.10;99.90;;;;;;5015937;28;20034;-64
2022/09/09 10:14:45;;;;;;;5.43;1.45;;;23.90;99.90;;;;;;5020867;28;20029;-64
2022/09/09 10:17:36;;;;;;;7.95;1.20;;;22.80;99.90;;;;;;5025732;28;20596;-64
2022/09/09 10:20:20;;;;;;;3.72;1.10;;;22.30;99.90;;;;;;5031880;28;20432;-63
2022/09/09 10:22:56;;;;;;;6.32;1.30;;;22.20;99.90;;;;;;5017931;28;20091;-64
2022/09/09 10:25:22;;;;;;;5.97;1.30;;;21.80;99.90;;;;;;5025366;28;20033;-64
2022/09/09 10:28:02;;;;;;;7.57;1.55;;;22.20;99.90;;;;;;5045323;28;20026;-64
2022/09/09 10:30:37;;;;;;;5.03;1.25;;;22.20;99.90;;;;;;5028540;28;20044;-64
2022/09/09 10:33:08;;;;;;;9.23;1.65;;;22.30;99.90;;;;;;5025616;28;20033;-64
2022/09/09 10:35:59;;;;;;;4.78;1.10;;;22.70;99.90;;;;;;5040263;28;20013;-63
2022/09/09 10:38:43;;;;;;;5.65;1.27;;;22.80;99.70;;;;;;5022160;28;20124;-63
2022/09/09 10:41:43;;;;;;;4.43;1.23;;;23.40;98.90;;;;;;5021225;28;20026;-63
2022/09/09 10:44:28;;;;;;;5.18;1.17;;;23.10;97.60;;;;;;5023434;28;20044;-63
2022/09/09 10:47:06;;;;;;;6.93;1.40;;;23.00;98.40;;;;;;5024070;28;20079;-63
2022/09/09 10:50:13;;;;;;;6.40;1.20;;;23.40;97.40;;;;;;5024348;28;20029;-64
2022/09/09 10:52:58;;;;;;;5.05;1.30;;;25.00;95.10;;;;;;5023648;28;20056;-63
2022/09/09 10:55:30;;;;;;;9.55;1.30;;;25.20;93.90;;;;;;5023869;28;20032;-64
2022/09/09 10:58:00;;;;;;;4.57;1.20;;;26.30;92.30;;;;;;5024018;28;20031;-63
2022/09/09 11:00:41;;;;;;;4.03;1.30;;;26.20;92.00;;;;;;5025827;28;20037;-63
2022/09/09 11:03:18;;;;;;;5.68;1.27;;;25.50;91.60;;;;;;5034672;28;20034;-63
2022/09/09 11:05:53;;;;;;;3.72;1.13;;;24.00;93.40;;;;;;5022264;28;20025;-64
2022/09/09 11:08:21;;;;;;;5.13;1.20;;;23.20;94.70;;;;;;5022648;28;20029;-64
2022/09/09 11:11:06;;;;;;;7.20;1.17;;;22.80;96.90;;;;;;5021444;28;20486;-63
2022/09/09 11:13:49;;;;;;;4.50;1.02;;;23.10;95.50;;;;;;5026496;28;20091;-63
2022/09/09 11:16:17;;;;;;;6.22;1.08;;;22.20;96.60;;;;;;5027492;28;20428;-63
2022/09/09 11:18:45;;;;;;;6.80;1.60;;;21.60;98.20;;;;;;5024731;28;20064;-63
2022/09/09 11:21:23;;;;;;;6.85;1.30;;;21.60;99.90;;;;;;5024975;28;20160;-63
2022/09/09 11:23:57;;;;;;;5.18;1.20;;;22.10;99.60;;;;;;5024465;28;20026;-63
2022/09/09 11:26:37;;;;;;;4.60;1.13;;;24.10;96.40;;;;;;5018390;28;20032;-63
2022/09/09 11:29:22;;;;;;;7.72;1.35;;;25.30;94.10;;;;;;5023653;28;20021;-64
2022/09/09 11:31:55;;;;;;;5.43;1.30;;;25.30;93.20;;;;;;5023901;28;20697;-63
2022/09/09 11:34:49;;;;;;;7.28;1.30;;;25.80;92.70;;;;;;5034605;28;20575;-63
2022/09/09 11:37:20;;;;;;;4.05;1.05;;;24.60;93.50;;;;;;5039389;28;20681;-63
2022/09/09 11:40:07;;;;;;;6.97;1.20;;;24.50;94.40;;;;;;5026178;28;20131;-64
2022/09/09 11:42:33;;;;;;;3.13;0.93;;;25.90;91.80;;;;;;5035182;28;20032;-63
2022/09/09 11:45:11;;;;;;;3.88;0.98;;;26.20;90.60;;;;;;5023358;28;20026;-64
2022/09/09 11:47:36;;;;;;;5.25;1.02;;;25.00;91.90;;;;;;5026613;28;20034;-63
2022/09/09 11:50:08;;;;;;;4.53;0.90;;;24.50;93.20;;;;;;5028390;28;20025;-63
2022/09/09 11:52:42;;;;;;;4.10;1.08;;;23.40;94.60;;;;;;5022257;28;20033;-63
2022/09/09 11:55:31;;;;;;;2.75;0.80;;;23.20;94.80;;;;;;5028077;28;20060;-64
2022/09/09 11:58:01;;;;;;;3.70;1.10;;;22.50;95.30;;;;;;5021462;28;20034;-63
2022/09/09 12:00:36;;;;;;;8.23;1.20;;;22.70;96.50;;;;;;5035332;28;20029;-63
2022/09/09 12:03:06;;;;;;;2.33;1.00;;;23.20;96.60;;;;;;5020134;28;20103;-63
2022/09/09 12:05:59;;;;;;;4.97;1.13;;;23.50;94.90;;;;;;5021998;28;20033;-64
2022/09/09 12:08:29;;;;;;;3.95;0.98;;;24.80;94.10;;;;;;5028345;28;20033;-64
2022/09/09 12:10:56;;;;;;;;;;;25.20;92.30;;;;;;5026270;28;20100;-64
2022/09/09 12:13:24;;;;;;;3.10;0.90;;;24.70;92.90;;;;;;5036757;28;19921;-64
2022/09/09 12:15:53;;;;;;;5.43;1.20;;;23.80;94.00;;;;;;5024063;28;20061;-63
2022/09/09 12:18:39;;;;;;;2.55;0.90;;;23.40;94.80;;;;;;5023546;28;20029;-63
2022/09/09 12:21:08;;;;;;;3.97;0.90;;;22.70;95.50;;;;;;5017329;28;20042;-63
2022/09/09 12:23:56;;;;;;;4.53;0.83;;;22.40;96.50;;;;;;5026618;28;20033;-64
2022/09/09 12:26:38;;;;;;;6.63;1.17;;;22.20;96.70;;;;;;5026801;28;20037;-64
2022/09/09 12:29:24;;;;;;;6.60;1.20;;;22.30;97.00;;;;;;5026791;28;20021;-64
2022/09/09 12:32:11;;;;;;;7.47;1.20;;;22.10;97.00;;;;;;5027516;28;20025;-63
2022/09/09 12:34:44;;;;;;;5.70;1.10;;;21.60;98.20;;;;;;5027873;28;20479;-64
2022/09/09 12:37:20;;;;;;;7.30;1.05;;;21.30;99.70;;;;;;5027993;28;20035;-64
2022/09/09 12:39:51;;;;;;;6.32;1.20;;;21.20;99.90;;;;;;5027313;28;20029;-63
2022/09/09 12:42:19;;;;;;;3.85;1.17;;;20.90;99.90;;;;;;5020295;28;20021;-63
2022/09/09 12:44:59;;;;;;;3.05;1.10;;;20.40;99.90;;;;;;5031522;28;20405;-63
2022/09/09 12:48:05;;;;;;;5.63;1.40;;;19.90;99.90;;;;;;5026350;28;20084;-64
2022/09/09 12:50:34;;;;;;;6.95;1.42;;;19.40;99.90;;;;;;4986467;28;20087;-63
2022/09/09 12:53:06;;;;;;;7.03;1.50;;;19.40;99.90;;;;;;5024244;28;20099;-63
2022/09/09 12:55:36;;;;;;;6.22;1.55;;;19.30;99.90;;;;;;5016466;28;20033;-63
2022/09/09 12:58:05;;;;;;;3.13;1.00;;;19.80;99.90;;;;;;5023177;28;20468;-63
2022/09/09 13:00:33;;;;;;;4.23;1.30;;;21.90;99.90;;;;;;5029026;28;20222;-64
2022/09/09 13:03:01;;;;;;;3.58;1.08;;;24.10;99.90;;;;;;5029314;28;20649;-64
2022/09/09 13:05:34;;;;;;;3.22;1.30;;;25.50;99.90;;;;;;5027086;28;20100;-64
2022/09/09 13:08:04;;;;;;;3.03;0.90;;;24.50;99.90;;;;;;5029876;28;20382;-64
2022/09/09 13:10:38;;;;;;;5.90;1.17;;;22.70;99.90;;;;;;5027287;28;20052;-63
2022/09/09 13:13:11;;;;;;;3.85;1.10;;;21.40;99.90;;;;;;5038850;28;20076;-63
2022/09/09 13:15:37;;;;;;;6.50;1.10;;;20.90;99.90;;;;;;5028614;28;20018;-63